ARG1019 SACO-SAME
Flight info
| Callsign | ARG1019 |
|---|---|
| Flight time | 0h 50m |
| Altitude | 34000 |
| Route | ALDEX1C ALDEX UL531 SALBO SALBO3Q |
| Aircraft | A320/M-SDE3FGHIRWY/LB1 |
Departure
| Time | 2026-05-04 21:38 |
|---|---|
| Airport | Ingeniero Aeronáutico Ambrosio L.V. Taravella International Airport (SACO) |
Arrival
| Time | 2026-05-04 22:29 |
|---|---|
| Airport | Governor Francisco Gabrielli International Airport (SAME) |
| Time | Latitude | Longitude | Altitude | Speed | Heading |
|---|---|---|---|---|---|
| 2026-05-04 21:31 | -31.31674 | -64.21160 | 1575 ft | 0 kts | 307° |
| 2026-05-04 21:34 | -31.31682 | -64.21148 | 1575 ft | 5 kts | 307° |
| 2026-05-04 21:35 | -31.31684 | -64.21108 | 1575 ft | 5 kts | 224° |
| 2026-05-04 21:35 | -31.31664 | -64.21096 | 1575 ft | 0 kts | 197° |
| 2026-05-04 21:35 | -31.31674 | -64.21098 | 1575 ft | 8 kts | 188° |
| 2026-05-04 21:36 | -31.31749 | -64.21070 | 1575 ft | 13 kts | 150° |
| 2026-05-04 21:36 | -31.31838 | -64.21027 | 1575 ft | 15 kts | 173° |
| 2026-05-04 21:36 | -31.31952 | -64.21023 | 1575 ft | 17 kts | 179° |
| 2026-05-04 21:36 | -31.32090 | -64.21022 | 1575 ft | 24 kts | 179° |
| 2026-05-04 21:37 | -31.32284 | -64.21019 | 1575 ft | 32 kts | 179° |
| 2026-05-04 21:37 | -31.32409 | -64.20993 | 1575 ft | 17 kts | 139° |
| 2026-05-04 21:37 | -31.32419 | -64.20863 | 1574 ft | 19 kts | 51° |
| 2026-05-04 21:37 | -31.32292 | -64.20814 | 1574 ft | 21 kts | 0° |
| 2026-05-04 21:38 | -31.32008 | -64.20818 | 1576 ft | 80 kts | 359° |
| 2026-05-04 21:38 | -31.31176 | -64.20836 | 1576 ft | 154 kts | 359° |
| 2026-05-04 21:38 | -31.30000 | -64.20869 | 2119 ft | 177 kts | 358° |
| 2026-05-04 21:38 | -31.28688 | -64.20903 | 2774 ft | 199 kts | 358° |
| 2026-05-04 21:39 | -31.27235 | -64.20931 | 3472 ft | 224 kts | 359° |
| 2026-05-04 21:39 | -31.25566 | -64.20951 | 4269 ft | 247 kts | 359° |
| 2026-05-04 21:39 | -31.23833 | -64.20972 | 5336 ft | 257 kts | 359° |
| 2026-05-04 21:39 | -31.22026 | -64.20997 | 6496 ft | 262 kts | 359° |
| 2026-05-04 21:40 | -31.20190 | -64.21097 | 7481 ft | 267 kts | 348° |
| 2026-05-04 21:40 | -31.18509 | -64.22006 | 8284 ft | 271 kts | 322° |
| 2026-05-04 21:40 | -31.17020 | -64.23377 | 9129 ft | 274 kts | 321° |
| 2026-05-04 21:40 | -31.15522 | -64.24773 | 9940 ft | 277 kts | 321° |
| 2026-05-04 21:41 | -31.14079 | -64.26283 | 10716 ft | 281 kts | 310° |
| 2026-05-04 21:41 | -31.12957 | -64.28208 | 11175 ft | 298 kts | 296° |
| 2026-05-04 21:41 | -31.12214 | -64.30555 | 11401 ft | 320 kts | 283° |
| 2026-05-04 21:41 | -31.11958 | -64.33195 | 11820 ft | 334 kts | 270° |
| 2026-05-04 21:42 | -31.11976 | -64.35929 | 12466 ft | 339 kts | 270° |
| 2026-05-04 21:42 | -31.11973 | -64.38698 | 13139 ft | 343 kts | 270° |
| 2026-05-04 21:42 | -31.11962 | -64.41502 | 13787 ft | 347 kts | 270° |
| 2026-05-04 21:42 | -31.11946 | -64.44336 | 14435 ft | 351 kts | 270° |
| 2026-05-04 21:43 | -31.11929 | -64.47191 | 15092 ft | 354 kts | 270° |
| 2026-05-04 21:43 | -31.11913 | -64.50062 | 15725 ft | 357 kts | 270° |
| 2026-05-04 21:43 | -31.12095 | -64.52964 | 16321 ft | 361 kts | 259° |
| 2026-05-04 21:43 | -31.12667 | -64.55818 | 16911 ft | 364 kts | 256° |
| 2026-05-04 21:44 | -31.13274 | -64.58701 | 17501 ft | 368 kts | 256° |
| 2026-05-04 21:44 | -31.13882 | -64.61612 | 18086 ft | 371 kts | 256° |
| 2026-05-04 21:44 | -31.14488 | -64.64549 | 18658 ft | 374 kts | 256° |
| 2026-05-04 21:44 | -31.15098 | -64.67519 | 19218 ft | 378 kts | 256° |
| 2026-05-04 21:45 | -31.15714 | -64.70519 | 19790 ft | 381 kts | 256° |
| 2026-05-04 21:45 | -31.16336 | -64.73545 | 20334 ft | 385 kts | 256° |
| 2026-05-04 21:45 | -31.16965 | -64.76601 | 20829 ft | 389 kts | 256° |
| 2026-05-04 21:45 | -31.17598 | -64.79690 | 21315 ft | 393 kts | 257° |
| 2026-05-04 21:46 | -31.18231 | -64.82803 | 21790 ft | 396 kts | 257° |
| 2026-05-04 21:46 | -31.18886 | -64.85933 | 22275 ft | 398 kts | 253° |
| 2026-05-04 21:46 | -31.19941 | -64.88928 | 22746 ft | 401 kts | 241° |
| 2026-05-04 21:46 | -31.21541 | -64.91608 | 23216 ft | 404 kts | 228° |
| 2026-05-04 21:47 | -31.23608 | -64.93839 | 23672 ft | 407 kts | 216° |
| 2026-05-04 21:47 | -31.26050 | -64.95532 | 24122 ft | 410 kts | 207° |
| 2026-05-04 21:47 | -31.28598 | -64.97041 | 24582 ft | 412 kts | 207° |
| 2026-05-04 21:47 | -31.31157 | -64.98569 | 25028 ft | 414 kts | 207° |
| 2026-05-04 21:48 | -31.33726 | -65.00113 | 25454 ft | 417 kts | 207° |
| 2026-05-04 21:48 | -31.36314 | -65.01673 | 25854 ft | 419 kts | 207° |
| 2026-05-04 21:48 | -31.38910 | -65.03242 | 25985 ft | 422 kts | 207° |
| 2026-05-04 21:48 | -31.41561 | -65.04846 | 26012 ft | 435 kts | 207° |
| 2026-05-04 21:49 | -31.44275 | -65.06485 | 26009 ft | 442 kts | 207° |
| 2026-05-04 21:49 | -31.47013 | -65.08136 | 26009 ft | 443 kts | 207° |
| 2026-05-04 21:49 | -31.49760 | -65.09789 | 26008 ft | 444 kts | 207° |
| 2026-05-04 21:49 | -31.52502 | -65.11441 | 26008 ft | 444 kts | 207° |
| 2026-05-04 21:50 | -31.55251 | -65.13102 | 26010 ft | 444 kts | 207° |
| 2026-05-04 21:50 | -31.57995 | -65.14764 | 26008 ft | 444 kts | 207° |
| 2026-05-04 21:50 | -31.60735 | -65.16425 | 26008 ft | 444 kts | 207° |
| 2026-05-04 21:50 | -31.63383 | -65.18276 | 26006 ft | 444 kts | 217° |
| 2026-05-04 21:51 | -31.65633 | -65.20743 | 26009 ft | 443 kts | 230° |
| 2026-05-04 21:51 | -31.67364 | -65.23725 | 26006 ft | 443 kts | 243° |
| 2026-05-04 21:51 | -31.68587 | -65.27040 | 26013 ft | 443 kts | 248° |
| 2026-05-04 21:51 | -31.69729 | -65.30397 | 26024 ft | 442 kts | 248° |
| 2026-05-04 21:52 | -31.70873 | -65.33750 | 26027 ft | 441 kts | 248° |
| 2026-05-04 21:52 | -31.72000 | -65.37041 | 26003 ft | 426 kts | 248° |
| 2026-05-04 21:52 | -31.73081 | -65.40196 | 26006 ft | 408 kts | 248° |
| 2026-05-04 21:52 | -31.74122 | -65.43233 | 26009 ft | 397 kts | 248° |
| 2026-05-04 21:53 | -31.75148 | -65.46225 | 26010 ft | 394 kts | 248° |
| 2026-05-04 21:53 | -31.76173 | -65.49218 | 26012 ft | 399 kts | 248° |
| 2026-05-04 21:53 | -31.77227 | -65.52308 | 26011 ft | 414 kts | 248° |
| 2026-05-04 21:53 | -31.78303 | -65.55463 | 26011 ft | 428 kts | 248° |
| 2026-05-04 21:54 | -31.79421 | -65.58743 | 26009 ft | 436 kts | 248° |
| 2026-05-04 21:54 | -31.80549 | -65.62058 | 26009 ft | 438 kts | 248° |
| 2026-05-04 21:54 | -31.81680 | -65.65384 | 26009 ft | 438 kts | 248° |
| 2026-05-04 21:54 | -31.82810 | -65.68714 | 26009 ft | 439 kts | 248° |
| 2026-05-04 21:55 | -31.83941 | -65.72047 | 26010 ft | 439 kts | 248° |
| 2026-05-04 21:55 | -31.85073 | -65.75381 | 26009 ft | 439 kts | 248° |
| 2026-05-04 21:55 | -31.86199 | -65.78711 | 26010 ft | 439 kts | 248° |
| 2026-05-04 21:55 | -31.87324 | -65.82049 | 26009 ft | 439 kts | 248° |
| 2026-05-04 21:56 | -31.88448 | -65.85384 | 26009 ft | 439 kts | 248° |
| 2026-05-04 21:56 | -31.89573 | -65.88722 | 26010 ft | 439 kts | 248° |
| 2026-05-04 21:56 | -31.90699 | -65.92056 | 26011 ft | 439 kts | 248° |
| 2026-05-04 21:56 | -31.91826 | -65.95398 | 26011 ft | 439 kts | 248° |
| 2026-05-04 21:57 | -31.92951 | -65.98735 | 26011 ft | 439 kts | 248° |
| 2026-05-04 21:57 | -31.94073 | -66.02076 | 26011 ft | 439 kts | 248° |
| 2026-05-04 21:57 | -31.95197 | -66.05422 | 26012 ft | 439 kts | 248° |
| 2026-05-04 21:57 | -31.96320 | -66.08767 | 26011 ft | 439 kts | 248° |
| 2026-05-04 21:58 | -31.97444 | -66.12113 | 26013 ft | 439 kts | 249° |
| 2026-05-04 21:58 | -31.98562 | -66.15458 | 26014 ft | 439 kts | 249° |
| 2026-05-04 21:58 | -31.99679 | -66.18806 | 26012 ft | 439 kts | 249° |
| 2026-05-04 21:58 | -32.00797 | -66.22161 | 26014 ft | 439 kts | 249° |
| 2026-05-04 21:59 | -32.01914 | -66.25511 | 26015 ft | 440 kts | 249° |
| 2026-05-04 21:59 | -32.03031 | -66.28864 | 26014 ft | 440 kts | 249° |
| 2026-05-04 21:59 | -32.04148 | -66.32218 | 26015 ft | 440 kts | 249° |
| 2026-05-04 21:59 | -32.05262 | -66.35575 | 26014 ft | 440 kts | 249° |
| 2026-05-04 22:00 | -32.06376 | -66.38929 | 26014 ft | 440 kts | 249° |
| 2026-05-04 22:00 | -32.07490 | -66.42289 | 26015 ft | 440 kts | 249° |
| 2026-05-04 22:00 | -32.08606 | -66.45651 | 26012 ft | 440 kts | 249° |
| 2026-05-04 22:00 | -32.09720 | -66.49008 | 26016 ft | 440 kts | 249° |
| 2026-05-04 22:01 | -32.10835 | -66.52367 | 26018 ft | 440 kts | 249° |
| 2026-05-04 22:01 | -32.11945 | -66.55726 | 26017 ft | 440 kts | 249° |
| 2026-05-04 22:01 | -32.13052 | -66.59089 | 26015 ft | 440 kts | 249° |
| 2026-05-04 22:01 | -32.14159 | -66.62453 | 26020 ft | 440 kts | 249° |
| 2026-05-04 22:02 | -32.15265 | -66.65814 | 26021 ft | 440 kts | 249° |
| 2026-05-04 22:02 | -32.16372 | -66.69175 | 26020 ft | 439 kts | 249° |
| 2026-05-04 22:02 | -32.17480 | -66.72537 | 26020 ft | 439 kts | 249° |
| 2026-05-04 22:02 | -32.18584 | -66.75897 | 26017 ft | 439 kts | 249° |
| 2026-05-04 22:03 | -32.19690 | -66.79262 | 26017 ft | 439 kts | 249° |
| 2026-05-04 22:03 | -32.20794 | -66.82626 | 26016 ft | 439 kts | 249° |
| 2026-05-04 22:03 | -32.21895 | -66.85993 | 26013 ft | 439 kts | 249° |
| 2026-05-04 22:03 | -32.22996 | -66.89360 | 26011 ft | 440 kts | 249° |
| 2026-05-04 22:04 | -32.24096 | -66.92727 | 26011 ft | 440 kts | 249° |
| 2026-05-04 22:04 | -32.25197 | -66.96099 | 26008 ft | 440 kts | 249° |
| 2026-05-04 22:04 | -32.26299 | -66.99476 | 26005 ft | 440 kts | 249° |
| 2026-05-04 22:04 | -32.27396 | -67.02853 | 26005 ft | 440 kts | 249° |
| 2026-05-04 22:05 | -32.28491 | -67.06226 | 26005 ft | 440 kts | 249° |
| 2026-05-04 22:05 | -32.29590 | -67.09605 | 26005 ft | 440 kts | 249° |
| 2026-05-04 22:05 | -32.30689 | -67.12986 | 26009 ft | 440 kts | 249° |
| 2026-05-04 22:05 | -32.31785 | -67.16365 | 25898 ft | 439 kts | 249° |
| 2026-05-04 22:06 | -32.32871 | -67.19716 | 25441 ft | 433 kts | 249° |
| 2026-05-04 22:06 | -32.33940 | -67.23016 | 24934 ft | 426 kts | 249° |
| 2026-05-04 22:06 | -32.34992 | -67.26263 | 24453 ft | 420 kts | 249° |
| 2026-05-04 22:06 | -32.36025 | -67.29461 | 23972 ft | 413 kts | 249° |
| 2026-05-04 22:07 | -32.37042 | -67.32618 | 23487 ft | 408 kts | 249° |
| 2026-05-04 22:07 | -32.37709 | -67.34687 | 23167 ft | 405 kts | 249° |
| 2026-05-04 22:07 | -32.39043 | -67.38825 | 22524 ft | 400 kts | 249° |
| 2026-05-04 22:07 | -32.39696 | -67.40853 | 22206 ft | 397 kts | 249° |
| 2026-05-04 22:08 | -32.40674 | -67.43891 | 21740 ft | 394 kts | 249° |
| 2026-05-04 22:08 | -32.41641 | -67.46914 | 21269 ft | 390 kts | 249° |
| 2026-05-04 22:08 | -32.42599 | -67.49904 | 20801 ft | 386 kts | 249° |
| 2026-05-04 22:08 | -32.43853 | -67.53813 | 20186 ft | 381 kts | 249° |
| 2026-05-04 22:09 | -32.44488 | -67.55790 | 19881 ft | 379 kts | 249° |
| 2026-05-04 22:09 | -32.45419 | -67.58689 | 19416 ft | 375 kts | 249° |
| 2026-05-04 22:09 | -32.46338 | -67.61559 | 18960 ft | 370 kts | 249° |
| 2026-05-04 22:09 | -32.47243 | -67.64397 | 18515 ft | 366 kts | 249° |
| 2026-05-04 22:10 | -32.48134 | -67.67196 | 18072 ft | 362 kts | 249° |
| 2026-05-04 22:10 | -32.49015 | -67.69966 | 17627 ft | 359 kts | 249° |
| 2026-05-04 22:10 | -32.49887 | -67.72715 | 17195 ft | 355 kts | 249° |
| 2026-05-04 22:10 | -32.50752 | -67.75437 | 16752 ft | 351 kts | 249° |
| 2026-05-04 22:11 | -32.51878 | -67.77982 | 16280 ft | 349 kts | 234° |
| 2026-05-04 22:11 | -32.53347 | -67.80261 | 15813 ft | 346 kts | 232° |
| 2026-05-04 22:11 | -32.54806 | -67.82512 | 15369 ft | 344 kts | 232° |
| 2026-05-04 22:11 | -32.56255 | -67.84753 | 14922 ft | 341 kts | 233° |
| 2026-05-04 22:12 | -32.57689 | -67.86979 | 14478 ft | 339 kts | 233° |
| 2026-05-04 22:12 | -32.59111 | -67.89193 | 14040 ft | 336 kts | 233° |
| 2026-05-04 22:12 | -32.60523 | -67.91393 | 13609 ft | 334 kts | 233° |
| 2026-05-04 22:12 | -32.61925 | -67.93576 | 13180 ft | 332 kts | 233° |
| 2026-05-04 22:13 | -32.63321 | -67.95751 | 12747 ft | 330 kts | 233° |
| 2026-05-04 22:13 | -32.64686 | -67.97881 | 12337 ft | 328 kts | 233° |
| 2026-05-04 22:13 | -32.66058 | -68.00027 | 11918 ft | 326 kts | 233° |
| 2026-05-04 22:13 | -32.67423 | -68.02160 | 11507 ft | 324 kts | 233° |
| 2026-05-04 22:14 | -32.68780 | -68.04282 | 11096 ft | 322 kts | 233° |
| 2026-05-04 22:14 | -32.70127 | -68.06391 | 10690 ft | 320 kts | 233° |
| 2026-05-04 22:14 | -32.71469 | -68.08488 | 10282 ft | 318 kts | 233° |
| 2026-05-04 22:14 | -32.72798 | -68.10561 | 9877 ft | 309 kts | 233° |
| 2026-05-04 22:15 | -32.74090 | -68.12581 | 9497 ft | 307 kts | 233° |
| 2026-05-04 22:15 | -32.75372 | -68.14594 | 9113 ft | 303 kts | 233° |
| 2026-05-04 22:15 | -32.76615 | -68.16543 | 8870 ft | 288 kts | 233° |
| 2026-05-04 22:15 | -32.77797 | -68.18399 | 8807 ft | 276 kts | 233° |
| 2026-05-04 22:16 | -32.78936 | -68.20188 | 8749 ft | 265 kts | 233° |
| 2026-05-04 22:16 | -32.80027 | -68.21901 | 8691 ft | 255 kts | 233° |
| 2026-05-04 22:16 | -32.81076 | -68.23547 | 8629 ft | 244 kts | 233° |
| 2026-05-04 22:16 | -32.82082 | -68.25125 | 8566 ft | 235 kts | 233° |
| 2026-05-04 22:17 | -32.83060 | -68.26661 | 8513 ft | 232 kts | 233° |
| 2026-05-04 22:17 | -32.84033 | -68.28190 | 8448 ft | 232 kts | 233° |
| 2026-05-04 22:17 | -32.85006 | -68.29718 | 8381 ft | 231 kts | 233° |
| 2026-05-04 22:17 | -32.85976 | -68.31245 | 8311 ft | 231 kts | 233° |
| 2026-05-04 22:18 | -32.86943 | -68.32769 | 8250 ft | 229 kts | 233° |
| 2026-05-04 22:18 | -32.87882 | -68.34248 | 8182 ft | 219 kts | 233° |
| 2026-05-04 22:18 | -32.88790 | -68.35679 | 8126 ft | 219 kts | 233° |
| 2026-05-04 22:18 | -32.89722 | -68.37147 | 8066 ft | 228 kts | 233° |
| 2026-05-04 22:19 | -32.90685 | -68.38663 | 8000 ft | 230 kts | 233° |
| 2026-05-04 22:19 | -32.91650 | -68.40185 | 7928 ft | 230 kts | 233° |
| 2026-05-04 22:19 | -32.92611 | -68.41702 | 7864 ft | 230 kts | 233° |
| 2026-05-04 22:19 | -32.93572 | -68.43219 | 7802 ft | 229 kts | 233° |
| 2026-05-04 22:20 | -32.94531 | -68.44738 | 7739 ft | 229 kts | 233° |
| 2026-05-04 22:20 | -32.95487 | -68.46255 | 7668 ft | 229 kts | 233° |
| 2026-05-04 22:20 | -32.96446 | -68.47770 | 7605 ft | 229 kts | 233° |
| 2026-05-04 22:20 | -32.97402 | -68.49280 | 7541 ft | 229 kts | 233° |
| 2026-05-04 22:21 | -32.98359 | -68.50793 | 7484 ft | 228 kts | 233° |
| 2026-05-04 22:21 | -32.99316 | -68.52302 | 7435 ft | 228 kts | 233° |
| 2026-05-04 22:21 | -33.00274 | -68.53810 | 7383 ft | 228 kts | 233° |
| 2026-05-04 22:21 | -33.01216 | -68.55299 | 7333 ft | 228 kts | 233° |
| 2026-05-04 22:22 | -33.02167 | -68.56808 | 7284 ft | 228 kts | 233° |
| 2026-05-04 22:22 | -33.03116 | -68.58314 | 7235 ft | 228 kts | 233° |
| 2026-05-04 22:22 | -33.04065 | -68.59828 | 7181 ft | 227 kts | 236° |
| 2026-05-04 22:22 | -33.04807 | -68.61483 | 7128 ft | 227 kts | 249° |
| 2026-05-04 22:23 | -33.05219 | -68.63301 | 6945 ft | 229 kts | 262° |
| 2026-05-04 22:23 | -33.05289 | -68.65191 | 6635 ft | 229 kts | 271° |
| 2026-05-04 22:23 | -33.05260 | -68.67091 | 6325 ft | 229 kts | 271° |
| 2026-05-04 22:23 | -33.05238 | -68.68959 | 6245 ft | 224 kts | 271° |
| 2026-05-04 22:24 | -33.05219 | -68.70813 | 6155 ft | 224 kts | 271° |
| 2026-05-04 22:24 | -33.05199 | -68.72667 | 6059 ft | 223 kts | 271° |
| 2026-05-04 22:24 | -33.05180 | -68.74516 | 5948 ft | 223 kts | 270° |
| 2026-05-04 22:24 | -33.05162 | -68.76364 | 5855 ft | 223 kts | 270° |
| 2026-05-04 22:25 | -33.04986 | -68.78181 | 5745 ft | 221 kts | 294° |
| 2026-05-04 22:25 | -33.03960 | -68.79491 | 5645 ft | 221 kts | 336° |
| 2026-05-04 22:25 | -33.02455 | -68.79693 | 5539 ft | 222 kts | 6° |
| 2026-05-04 22:25 | -33.00908 | -68.79558 | 5418 ft | 224 kts | 1° |
| 2026-05-04 22:26 | -32.99354 | -68.79524 | 5198 ft | 223 kts | 0° |
| 2026-05-04 22:26 | -32.97810 | -68.79504 | 4920 ft | 221 kts | 0° |
| 2026-05-04 22:26 | -32.96275 | -68.79482 | 4628 ft | 220 kts | 0° |
| 2026-05-04 22:26 | -32.94744 | -68.79460 | 4341 ft | 219 kts | 0° |
| 2026-05-04 22:27 | -32.93255 | -68.79438 | 4057 ft | 209 kts | 0° |
| 2026-05-04 22:27 | -32.91851 | -68.79416 | 3809 ft | 194 kts | 0° |
| 2026-05-04 22:27 | -32.90559 | -68.79397 | 3544 ft | 176 kts | 0° |
| 2026-05-04 22:27 | -32.89413 | -68.79380 | 3317 ft | 156 kts | 0° |
| 2026-05-04 22:28 | -32.88354 | -68.79364 | 3115 ft | 149 kts | 360° |
| 2026-05-04 22:28 | -32.87326 | -68.79349 | 2921 ft | 146 kts | 360° |
| 2026-05-04 22:28 | -32.86313 | -68.79334 | 2732 ft | 145 kts | 360° |
| 2026-05-04 22:28 | -32.85306 | -68.79319 | 2533 ft | 144 kts | 0° |
| 2026-05-04 22:29 | -32.84314 | -68.79304 | 2351 ft | 143 kts | 0° |
| 2026-05-04 22:29 | -32.83497 | -68.79292 | 2324 ft | 78 kts | 1° |
| 2026-05-04 22:29 | -32.83182 | -68.79299 | 2326 ft | 21 kts | 336° |
| 2026-05-04 22:29 | -32.83175 | -68.79426 | 2328 ft | 15 kts | 225° |
| 2026-05-04 22:30 | -32.83196 | -68.79454 | 2326 ft | 3 kts | 230° |
| 2026-05-04 22:30 | -32.83178 | -68.79519 | 2326 ft | 15 kts | 0° |
| 2026-05-04 22:30 | -32.83049 | -68.79515 | 2327 ft | 22 kts | 339° |
| 2026-05-04 22:30 | -32.82927 | -68.79621 | 2326 ft | 20 kts | 326° |
| 2026-05-04 22:31 | -32.82840 | -68.79683 | 2326 ft | 13 kts | 274° |
| 2026-05-04 22:31 | -32.82839 | -68.79752 | 2326 ft | 1 kts | 270° |
| 2026-05-04 22:31 | -32.82839 | -68.79754 | 2326 ft | 0 kts | 270° |